Time;durP1;ratioP1;P1;durP2;ratioP2;P2;SDS_P1;SDS_P2;PMS_P1;PMS_P2;Temp;Humidity;BMP_temperature;BMP_pressure;BME280_temperature;BME280_humidity;BME280_pressure;Samples;Min_cycle;Max_cycle;Signal;HPM_P1;HPM_P2
2021/03/12 00:01:00;;;;;;;5.03;2.12;;;4.80;99.90;;;;;;484822;244;27825;-73
2021/03/12 00:03:01;;;;;;;2.78;1.70;;;4.80;99.90;;;;;;484832;244;27902;-73
2021/03/12 00:05:02;;;;;;;2.05;1.70;;;4.80;99.90;;;;;;484832;244;27374;-73
2021/03/12 00:07:04;;;;;;;6.60;1.65;;;4.80;99.90;;;;;;484820;244;27377;-73
2021/03/12 00:09:05;;;;;;;3.22;1.73;;;4.80;99.90;;;;;;484821;244;27384;-72
2021/03/12 00:11:06;;;;;;;3.25;1.73;;;4.80;99.90;;;;;;484827;244;27393;-73
2021/03/12 00:13:07;;;;;;;8.00;1.75;;;4.80;99.90;;;;;;484833;244;27402;-72
2021/03/12 00:15:09;;;;;;;4.18;1.92;;;4.80;99.90;;;;;;484856;244;27389;-72
2021/03/12 00:17:10;;;;;;;8.55;1.62;;;4.90;99.90;;;;;;484834;244;27377;-72
2021/03/12 00:19:11;;;;;;;6.32;2.05;;;4.90;99.90;;;;;;484831;244;28035;-73
2021/03/12 00:21:12;;;;;;;4.50;1.80;;;4.90;99.90;;;;;;484816;244;27916;-73
2021/03/12 00:23:14;;;;;;;5.68;2.60;;;4.80;99.90;;;;;;484856;244;27837;-72
2021/03/12 00:25:15;;;;;;;2.67;1.70;;;4.80;99.90;;;;;;484843;244;27384;-73
2021/03/12 00:27:16;;;;;;;3.65;2.15;;;4.90;99.90;;;;;;484813;244;27492;-72
2021/03/12 00:29:17;;;;;;;6.18;2.10;;;4.80;99.90;;;;;;484850;244;27385;-73
2021/03/12 00:31:19;;;;;;;13.00;2.90;;;4.80;99.90;;;;;;484838;244;27389;-73
2021/03/12 00:33:20;;;;;;;4.37;2.30;;;4.70;99.90;;;;;;484869;243;27382;-72
2021/03/12 00:35:21;;;;;;;8.40;1.80;;;4.70;99.90;;;;;;484869;244;27389;-72
2021/03/12 00:37:22;;;;;;;5.90;1.83;;;4.80;99.90;;;;;;484859;244;27854;-72
2021/03/12 00:39:24;;;;;;;4.28;1.73;;;4.80;99.90;;;;;;484846;243;27829;-72
2021/03/12 00:41:25;;;;;;;3.12;1.73;;;4.80;99.90;;;;;;484814;244;27827;-73
2021/03/12 00:43:26;;;;;;;6.82;2.00;;;4.80;99.90;;;;;;484823;244;27564;-72
2021/03/12 00:45:27;;;;;;;11.57;2.03;;;4.80;99.90;;;;;;484817;244;27384;-74
2021/03/12 00:47:29;;;;;;;7.22;2.10;;;4.80;99.90;;;;;;484826;244;27374;-74
2021/03/12 00:49:30;;;;;;;5.87;2.53;;;4.80;99.90;;;;;;484823;244;27492;-73
2021/03/12 00:51:31;;;;;;;5.55;2.00;;;4.80;99.90;;;;;;484814;244;27557;-72
2021/03/12 00:53:32;;;;;;;4.95;2.20;;;4.80;99.90;;;;;;484834;244;27373;-73
2021/03/12 00:55:34;;;;;;;5.03;2.30;;;4.70;99.90;;;;;;484820;244;27389;-73
2021/03/12 00:57:35;;;;;;;4.87;2.33;;;4.80;99.90;;;;;;484801;244;27947;-73
2021/03/12 00:59:36;;;;;;;10.35;2.30;;;4.90;99.90;;;;;;484843;244;27807;-73
2021/03/12 01:01:37;;;;;;;4.35;2.20;;;4.90;99.90;;;;;;484811;244;27382;-72
2021/03/12 01:03:39;;;;;;;4.28;1.75;;;4.80;99.90;;;;;;484821;244;27914;-72
2021/03/12 01:05:40;;;;;;;6.40;2.67;;;4.80;99.90;;;;;;484822;244;27385;-73
2021/03/12 01:07:41;;;;;;;7.95;2.12;;;4.90;99.90;;;;;;484822;244;27448;-73
2021/03/12 01:09:42;;;;;;;5.28;2.15;;;4.80;99.90;;;;;;484833;244;27373;-72
2021/03/12 01:11:44;;;;;;;5.57;2.45;;;4.90;99.90;;;;;;484817;244;27372;-72
2021/03/12 01:13:45;;;;;;;5.57;2.10;;;4.90;99.90;;;;;;484835;244;27381;-73
2021/03/12 01:15:46;;;;;;;6.25;2.40;;;4.90;99.90;;;;;;484816;244;27839;-74
2021/03/12 01:17:47;;;;;;;4.97;2.00;;;4.90;99.90;;;;;;484820;244;27833;-72
2021/03/12 01:19:49;;;;;;;4.72;2.10;;;4.90;99.90;;;;;;484812;244;28918;-73
2021/03/12 01:21:50;;;;;;;5.78;2.05;;;5.00;99.90;;;;;;484795;244;27444;-72
2021/03/12 01:23:51;;;;;;;4.60;2.00;;;5.00;99.90;;;;;;484823;244;27396;-73
2021/03/12 01:25:52;;;;;;;6.75;2.92;;;5.00;99.90;;;;;;484821;244;27388;-73
2021/03/12 01:27:54;;;;;;;5.78;2.00;;;5.00;99.90;;;;;;484825;244;27532;-72
2021/03/12 01:29:55;;;;;;;9.10;2.17;;;5.00;99.90;;;;;;484854;244;27468;-72
2021/03/12 01:31:56;;;;;;;6.12;2.50;;;5.00;99.90;;;;;;484833;244;27385;-73
2021/03/12 01:33:58;;;;;;;7.03;2.30;;;5.00;99.90;;;;;;484839;244;27872;-73
2021/03/12 01:35:59;;;;;;;7.75;2.15;;;5.00;99.90;;;;;;484817;244;27915;-73
2021/03/12 01:38:00;;;;;;;4.45;1.90;;;5.00;99.90;;;;;;484825;244;27842;-71
2021/03/12 01:40:01;;;;;;;9.15;2.20;;;4.90;99.90;;;;;;484831;244;27472;-75
2021/03/12 01:42:03;;;;;;;6.85;2.15;;;5.00;99.90;;;;;;484853;244;27464;-72
2021/03/12 01:44:04;;;;;;;4.35;2.85;;;4.80;99.90;;;;;;484867;244;27389;-72
2021/03/12 01:46:05;;;;;;;3.67;1.90;;;4.80;99.90;;;;;;484881;244;27377;-72
2021/03/12 01:48:06;;;;;;;4.10;1.98;;;4.70;99.90;;;;;;484858;244;27374;-71
2021/03/12 01:50:08;;;;;;;8.10;2.00;;;4.70;99.90;;;;;;484889;244;27397;-73
2021/03/12 01:52:09;;;;;;;6.65;2.00;;;4.70;99.90;;;;;;484888;244;27844;-72
2021/03/12 01:54:10;;;;;;;7.93;4.07;;;4.70;99.90;;;;;;484870;244;27824;-73
2021/03/12 01:56:11;;;;;;;5.75;1.83;;;4.60;99.90;;;;;;484843;244;27846;-72
2021/03/12 01:58:13;;;;;;;2.58;1.42;;;4.60;99.90;;;;;;484857;244;27484;-74
2021/03/12 02:00:14;;;;;;;2.90;1.90;;;4.60;99.90;;;;;;484871;244;27463;-74
2021/03/12 02:02:15;;;;;;;6.55;1.85;;;4.60;99.90;;;;;;484846;244;27397;-72
2021/03/12 02:04:16;;;;;;;8.95;1.90;;;4.60;99.90;;;;;;484843;244;27381;-72
2021/03/12 02:06:18;;;;;;;5.10;2.15;;;4.60;99.90;;;;;;484835;244;27374;-74
2021/03/12 02:08:19;;;;;;;6.30;2.87;;;4.70;99.90;;;;;;484850;244;27369;-73
2021/03/12 02:10:20;;;;;;;6.28;1.80;;;4.70;99.90;;;;;;484841;244;27487;-73
2021/03/12 02:12:21;;;;;;;7.57;2.00;;;4.80;99.90;;;;;;484847;243;27839;-72
2021/03/12 02:14:23;;;;;;;6.05;2.47;;;4.80;99.90;;;;;;484831;244;27849;-71
2021/03/12 02:16:24;;;;;;;6.20;1.60;;;4.80;99.90;;;;;;484818;244;27942;-74
2021/03/12 02:18:25;;;;;;;6.85;1.73;;;4.70;99.90;;;;;;484849;244;27370;-72
2021/03/12 02:20:26;;;;;;;5.35;2.00;;;4.70;99.90;;;;;;484848;244;27381;-74
2021/03/12 02:22:28;;;;;;;7.45;2.17;;;4.70;99.90;;;;;;484841;245;27387;-71
2021/03/12 02:24:29;;;;;;;7.15;2.05;;;4.70;99.90;;;;;;484823;244;27482;-73
2021/03/12 02:26:30;;;;;;;7.35;2.15;;;4.70;99.90;;;;;;484831;244;27461;-72
2021/03/12 02:28:31;;;;;;;7.43;2.10;;;4.70;99.90;;;;;;484838;245;27564;-72
2021/03/12 02:30:33;;;;;;;6.50;2.25;;;4.70;99.90;;;;;;484819;244;27378;-72
2021/03/12 02:32:34;;;;;;;5.65;2.05;;;4.70;99.90;;;;;;484832;245;27389;-73
2021/03/12 02:34:35;;;;;;;4.87;2.00;;;4.70;99.90;;;;;;484851;244;27888;-72
2021/03/12 02:36:36;;;;;;;2.10;1.90;;;4.80;99.90;;;;;;484826;244;27951;-72
2021/03/12 02:38:38;;;;;;;4.25;1.90;;;4.80;99.90;;;;;;484843;244;27788;-72
2021/03/12 02:40:39;;;;;;;6.40;2.33;;;4.80;99.90;;;;;;484830;244;27460;-73
2021/03/12 02:42:40;;;;;;;9.65;2.17;;;4.80;99.90;;;;;;484828;244;27393;-72
2021/03/12 02:44:41;;;;;;;6.28;1.80;;;4.80;99.90;;;;;;484838;244;27553;-72
2021/03/12 02:46:43;;;;;;;5.97;2.00;;;4.70;99.90;;;;;;484824;244;27385;-72
2021/03/12 02:48:44;;;;;;;3.17;2.17;;;4.70;99.90;;;;;;484881;244;27464;-71
2021/03/12 02:50:45;;;;;;;7.57;2.37;;;4.70;99.90;;;;;;484872;244;27374;-72
2021/03/12 02:52:46;;;;;;;5.07;2.08;;;4.70;99.90;;;;;;484840;244;27837;-73
2021/03/12 02:54:48;;;;;;;3.00;1.60;;;4.80;99.90;;;;;;484832;244;27916;-73
2021/03/12 02:56:49;;;;;;;5.28;2.35;;;4.70;99.90;;;;;;484832;244;27817;-73
2021/03/12 02:58:50;;;;;;;7.18;1.98;;;4.80;99.90;;;;;;484842;244;27455;-73
2021/03/12 03:00:51;;;;;;;9.90;2.62;;;4.80;99.90;;;;;;484883;244;28939;-72
2021/03/12 03:02:53;;;;;;;7.95;2.30;;;4.70;99.90;;;;;;484819;244;27389;-72
2021/03/12 03:04:54;;;;;;;5.85;2.37;;;4.70;99.90;;;;;;484837;244;27489;-74
2021/03/12 03:06:55;;;;;;;7.57;2.28;;;4.70;99.90;;;;;;484837;244;27479;-73
2021/03/12 03:08:56;;;;;;;7.07;1.95;;;4.80;99.90;;;;;;484840;244;27496;-73
2021/03/12 03:10:58;;;;;;;6.95;2.40;;;4.70;99.90;;;;;;484861;244;27388;-72
2021/03/12 03:12:59;;;;;;;8.00;2.12;;;4.70;99.90;;;;;;484837;244;27958;-72
2021/03/12 03:15:00;;;;;;;5.85;1.77;;;4.70;99.90;;;;;;484839;244;27981;-74
2021/03/12 03:17:01;;;;;;;4.43;1.70;;;4.80;99.90;;;;;;484845;244;27962;-72
2021/03/12 03:19:03;;;;;;;6.75;1.90;;;4.80;99.90;;;;;;484843;244;27486;-72
2021/03/12 03:21:04;;;;;;;7.32;1.90;;;4.80;99.90;;;;;;484835;244;27805;-72
2021/03/12 03:23:05;;;;;;;8.48;2.10;;;4.80;99.90;;;;;;484840;244;27389;-72
2021/03/12 03:25:06;;;;;;;8.80;1.98;;;4.80;99.90;;;;;;484865;244;27452;-74
2021/03/12 03:27:08;;;;;;;5.50;2.25;;;4.80;99.90;;;;;;484875;244;27375;-72
2021/03/12 03:29:09;;;;;;;5.07;2.17;;;4.80;99.90;;;;;;484882;244;27499;-72
2021/03/12 03:31:10;;;;;;;4.55;2.35;;;4.80;99.90;;;;;;484903;244;27464;-72
2021/03/12 03:33:11;;;;;;;4.90;1.80;;;4.80;99.90;;;;;;484835;244;27851;-72
2021/03/12 03:35:13;;;;;;;6.50;2.20;;;4.70;99.90;;;;;;484839;244;28096;-73
2021/03/12 03:37:14;;;;;;;4.68;2.58;;;4.70;99.90;;;;;;484838;244;27922;-72
2021/03/12 03:39:15;;;;;;;4.90;2.08;;;4.70;99.90;;;;;;484855;244;27483;-72
2021/03/12 03:41:16;;;;;;;7.87;2.22;;;4.70;99.90;;;;;;484833;244;27377;-74
2021/03/12 03:43:18;;;;;;;5.97;2.55;;;4.70;99.90;;;;;;484819;244;27466;-72
2021/03/12 03:45:19;;;;;;;9.32;2.40;;;4.70;99.90;;;;;;484849;244;27373;-73
2021/03/12 03:47:20;;;;;;;6.82;1.92;;;4.80;99.90;;;;;;484831;244;27380;-72
2021/03/12 03:49:21;;;;;;;11.00;2.80;;;4.70;99.90;;;;;;484843;244;27389;-74
2021/03/12 03:51:23;;;;;;;8.55;2.80;;;4.70;99.90;;;;;;484837;244;27484;-73
2021/03/12 03:53:24;;;;;;;12.37;2.28;;;4.70;99.90;;;;;;484831;244;27944;-73
2021/03/12 03:55:25;;;;;;;9.02;2.37;;;4.70;99.90;;;;;;484831;244;27922;-73
2021/03/12 03:57:27;;;;;;;8.27;2.65;;;4.70;99.90;;;;;;484819;244;27814;-72
2021/03/12 03:59:28;;;;;;;4.60;2.20;;;4.70;99.90;;;;;;484831;244;27453;-73
2021/03/12 04:01:29;;;;;;;10.05;2.87;;;4.70;99.90;;;;;;484830;244;27373;-72
2021/03/12 04:03:30;;;;;;;6.12;2.60;;;4.70;99.90;;;;;;484821;244;27500;-73
2021/03/12 04:05:32;;;;;;;11.40;2.03;;;4.60;99.90;;;;;;484819;244;27457;-73
2021/03/12 04:07:33;;;;;;;6.57;2.60;;;4.60;99.90;;;;;;484872;244;27381;-74
2021/03/12 04:09:34;;;;;;;6.90;2.70;;;4.60;99.90;;;;;;484828;244;27489;-73
2021/03/12 04:11:35;;;;;;;9.95;2.55;;;4.60;99.90;;;;;;484823;244;27977;-72
2021/03/12 04:13:37;;;;;;;19.45;3.08;;;4.60;99.90;;;;;;484832;244;27922;-72
2021/03/12 04:15:38;;;;;;;7.70;2.50;;;4.60;99.90;;;;;;484819;244;27465;-72
2021/03/12 04:17:39;;;;;;;4.40;2.17;;;4.50;99.90;;;;;;484823;244;27470;-72
2021/03/12 04:19:40;;;;;;;5.45;2.30;;;4.50;99.90;;;;;;484832;244;27496;-74
2021/03/12 04:21:42;;;;;;;6.72;2.42;;;4.50;99.90;;;;;;484802;244;27514;-72
2021/03/12 04:23:43;;;;;;;6.00;2.30;;;4.50;99.90;;;;;;484819;244;27475;-72
2021/03/12 04:25:44;;;;;;;6.65;2.28;;;4.50;99.90;;;;;;484829;244;27389;-72
2021/03/12 04:27:45;;;;;;;2.85;1.92;;;4.50;99.90;;;;;;484840;244;27397;-73
2021/03/12 04:29:47;;;;;;;5.85;2.42;;;4.50;99.90;;;;;;484834;244;27455;-72
2021/03/12 04:31:48;;;;;;;5.15;2.30;;;4.50;99.90;;;;;;484819;244;27864;-71
2021/03/12 04:33:49;;;;;;;11.48;2.40;;;4.40;99.90;;;;;;484828;244;27936;-74
2021/03/12 04:35:50;;;;;;;5.62;2.55;;;4.40;99.90;;;;;;484823;244;27954;-72
2021/03/12 04:37:52;;;;;;;13.55;3.05;;;4.30;99.90;;;;;;484845;244;27495;-73
2021/03/12 04:39:53;;;;;;;7.35;2.75;;;4.30;99.90;;;;;;484832;244;27393;-72
2021/03/12 04:41:54;;;;;;;5.35;2.47;;;4.30;99.90;;;;;;484866;244;27466;-72
2021/03/12 04:43:55;;;;;;;12.37;3.55;;;4.30;99.90;;;;;;484860;244;27393;-73
2021/03/12 04:45:57;;;;;;;9.57;2.33;;;4.30;99.90;;;;;;484892;244;27401;-78
2021/03/12 04:47:58;;;;;;;9.48;2.30;;;4.30;99.90;;;;;;484882;244;27405;-72
2021/03/12 04:49:59;;;;;;;11.48;3.20;;;4.30;99.90;;;;;;484832;244;27396;-73
2021/03/12 04:52:00;;;;;;;3.75;2.10;;;4.40;99.90;;;;;;484815;244;27938;-72
2021/03/12 04:54:02;;;;;;;10.20;2.62;;;4.40;99.90;;;;;;484832;244;27867;-74
2021/03/12 04:56:03;;;;;;;9.57;2.28;;;4.40;99.90;;;;;;484803;244;27493;-71
2021/03/12 04:58:04;;;;;;;8.80;2.75;;;4.40;99.90;;;;;;484832;244;27373;-73
2021/03/12 05:00:05;;;;;;;14.80;2.70;;;4.40;99.90;;;;;;484817;244;27508;-74
2021/03/12 05:02:07;;;;;;;5.50;2.22;;;4.40;99.90;;;;;;484831;244;27492;-72
2021/03/12 05:04:08;;;;;;;7.15;2.30;;;4.30;99.90;;;;;;484801;244;27401;-73
2021/03/12 05:06:09;;;;;;;4.12;2.10;;;4.30;99.90;;;;;;484814;244;27656;-72
2021/03/12 05:08:10;;;;;;;11.45;2.75;;;4.30;99.90;;;;;;484815;244;27389;-73
2021/03/12 05:10:12;;;;;;;6.37;2.75;;;4.30;99.90;;;;;;484827;244;27497;-72
2021/03/12 05:12:13;;;;;;;6.15;2.60;;;4.30;99.90;;;;;;484825;244;27935;-72
2021/03/12 05:14:14;;;;;;;8.02;2.62;;;4.30;99.90;;;;;;484831;244;27923;-74
2021/03/12 05:16:15;;;;;;;7.35;2.78;;;4.30;99.90;;;;;;484841;244;27929;-72
2021/03/12 05:18:17;;;;;;;4.12;2.05;;;4.30;99.90;;;;;;484814;244;27372;-73
2021/03/12 05:20:18;;;;;;;9.25;2.75;;;4.30;99.90;;;;;;484816;244;27385;-73
2021/03/12 05:22:19;;;;;;;10.60;2.70;;;4.30;99.90;;;;;;484829;244;27369;-73
2021/03/12 05:24:20;;;;;;;8.57;2.05;;;4.30;99.90;;;;;;484823;244;27389;-74
2021/03/12 05:26:22;;;;;;;9.55;2.00;;;4.30;99.90;;;;;;484831;244;27452;-73
2021/03/12 05:28:23;;;;;;;5.87;2.90;;;4.30;99.90;;;;;;484835;245;27390;-73
2021/03/12 05:30:24;;;;;;;9.25;1.90;;;4.30;99.90;;;;;;484849;244;27585;-72
2021/03/12 05:32:25;;;;;;;9.60;3.20;;;4.40;99.90;;;;;;484839;245;27849;-72
2021/03/12 05:34:27;;;;;;;7.60;2.25;;;4.30;99.90;;;;;;484831;244;28282;-73
2021/03/12 05:36:28;;;;;;;10.02;2.35;;;4.30;99.90;;;;;;484836;244;27913;-73
2021/03/12 05:38:29;;;;;;;7.68;2.22;;;4.30;99.90;;;;;;484855;244;27401;-72
2021/03/12 05:40:30;;;;;;;4.40;2.70;;;4.30;99.90;;;;;;484833;245;27499;-72
2021/03/12 05:42:32;;;;;;;8.02;2.05;;;4.40;99.90;;;;;;484859;244;27417;-72
2021/03/12 05:44:33;;;;;;;5.00;2.30;;;4.40;99.90;;;;;;484833;244;27504;-71
2021/03/12 05:46:34;;;;;;;4.20;1.90;;;4.40;99.90;;;;;;484850;244;27455;-72
2021/03/12 05:48:35;;;;;;;7.93;3.25;;;4.40;99.90;;;;;;484832;244;27389;-74
2021/03/12 05:50:37;;;;;;;4.90;3.10;;;4.40;99.90;;;;;;484853;244;27479;-72
2021/03/12 05:52:38;;;;;;;8.35;2.85;;;4.30;99.90;;;;;;484845;244;27456;-74
2021/03/12 05:54:39;;;;;;;5.57;2.45;;;4.40;99.90;;;;;;484860;244;27926;-73
2021/03/12 05:56:40;;;;;;;8.68;2.30;;;4.40;99.90;;;;;;484840;244;27956;-73
2021/03/12 05:58:42;;;;;;;7.43;2.47;;;4.40;99.90;;;;;;484843;244;28191;-72
2021/03/12 06:00:43;;;;;;;7.50;2.30;;;4.40;99.90;;;;;;484855;244;27384;-71
2021/03/12 06:02:44;;;;;;;10.25;2.87;;;4.40;99.90;;;;;;484861;244;27452;-72
2021/03/12 06:04:45;;;;;;;3.97;2.05;;;4.40;99.90;;;;;;484849;244;27379;-72
2021/03/12 06:06:47;;;;;;;11.43;2.83;;;4.40;99.90;;;;;;484900;244;27381;-71
2021/03/12 06:08:48;;;;;;;5.80;2.28;;;4.40;99.90;;;;;;484906;244;27386;-76
2021/03/12 06:10:49;;;;;;;5.95;3.72;;;4.40;99.90;;;;;;484887;244;27433;-72
2021/03/12 06:12:54;;;;;;;10.48;3.12;;;4.50;99.90;;;;;;484899;243;27496;-73
2021/03/12 06:14:52;;;;;;;4.95;2.85;;;4.50;99.90;;;;;;484736;244;27856;-72
2021/03/12 06:16:53;;;;;;;6.80;3.08;;;4.50;99.90;;;;;;484859;244;27893;-72
2021/03/12 06:18:54;;;;;;;9.75;2.58;;;4.50;99.90;;;;;;484857;244;27894;-74
2021/03/12 06:20:55;;;;;;;6.68;2.08;;;4.50;99.90;;;;;;484838;244;27452;-72
2021/03/12 06:22:57;;;;;;;3.83;2.28;;;4.50;99.90;;;;;;484852;244;27587;-73
2021/03/12 06:24:58;;;;;;;6.75;2.37;;;4.50;99.90;;;;;;484828;244;27385;-72
2021/03/12 06:26:59;;;;;;;12.05;2.85;;;4.50;99.90;;;;;;484830;244;27384;-72
2021/03/12 06:29:00;;;;;;;4.75;2.10;;;4.50;99.90;;;;;;484839;244;27393;-73
2021/03/12 06:31:02;;;;;;;10.30;2.90;;;4.50;99.90;;;;;;484843;244;27395;-72
2021/03/12 06:33:03;;;;;;;4.60;2.10;;;4.60;99.90;;;;;;484822;244;27400;-72
2021/03/12 06:35:04;;;;;;;11.40;2.70;;;4.60;99.90;;;;;;484858;244;27849;-73
2021/03/12 06:37:06;;;;;;;5.32;2.00;;;4.70;99.90;;;;;;484799;244;27859;-73
2021/03/12 06:39:07;;;;;;;4.12;2.00;;;4.70;99.90;;;;;;484787;244;27461;-74
2021/03/12 06:41:08;;;;;;;5.43;2.20;;;4.70;99.90;;;;;;484815;244;27377;-72
2021/03/12 06:43:09;;;;;;;8.85;2.35;;;4.60;99.90;;;;;;484867;244;27485;-72
2021/03/12 06:45:11;;;;;;;5.57;2.22;;;4.70;99.90;;;;;;484870;244;27492;-73
2021/03/12 06:47:12;;;;;;;10.70;2.15;;;4.70;99.90;;;;;;484866;244;27554;-73
2021/03/12 06:49:13;;;;;;;14.55;2.75;;;4.80;99.90;;;;;;484877;244;27479;-73
2021/03/12 06:51:14;;;;;;;4.30;2.40;;;4.90;99.90;;;;;;484856;244;27864;-72
2021/03/12 06:53:16;;;;;;;8.60;2.47;;;4.80;99.90;;;;;;484836;244;28227;-72
2021/03/12 06:55:17;;;;;;;5.25;2.37;;;4.90;99.90;;;;;;484834;244;27374;-72
2021/03/12 06:57:18;;;;;;;6.20;3.12;;;4.90;99.90;;;;;;484842;244;27478;-72
2021/03/12 06:59:19;;;;;;;10.25;2.20;;;4.90;99.90;;;;;;484851;244;27365;-71
2021/03/12 07:01:21;;;;;;;6.40;2.55;;;5.00;99.90;;;;;;484872;244;27483;-72
2021/03/12 07:03:22;;;;;;;11.18;2.22;;;5.00;99.90;;;;;;484822;244;27483;-71
2021/03/12 07:05:23;;;;;;;8.52;3.08;;;5.10;99.90;;;;;;484831;244;27392;-71
2021/03/12 07:07:24;;;;;;;4.97;2.30;;;5.10;99.90;;;;;;484840;244;28294;-72
2021/03/12 07:09:26;;;;;;;3.72;2.28;;;5.00;99.90;;;;;;484845;244;27963;-71
2021/03/12 07:11:27;;;;;;;8.07;2.20;;;5.00;99.90;;;;;;484838;244;27470;-72
2021/03/12 07:13:28;;;;;;;8.05;2.37;;;4.90;99.90;;;;;;484877;244;27389;-71
2021/03/12 07:15:29;;;;;;;7.82;2.42;;;4.90;99.90;;;;;;484834;244;27448;-71
2021/03/12 07:17:31;;;;;;;5.18;1.90;;;4.90;99.90;;;;;;484832;244;27381;-73
2021/03/12 07:19:32;;;;;;;7.45;2.10;;;4.90;99.90;;;;;;484842;244;27438;-71
2021/03/12 07:21:33;;;;;;;10.48;2.67;;;4.90;99.90;;;;;;484860;244;27393;-72
2021/03/12 07:23:34;;;;;;;4.75;1.90;;;4.90;99.90;;;;;;484875;244;27836;-71
2021/03/12 07:25:36;;;;;;;4.97;2.03;;;4.90;99.90;;;;;;484889;244;27828;-71
2021/03/12 07:27:37;;;;;;;5.60;2.25;;;4.90;99.90;;;;;;484880;244;27392;-72
2021/03/12 07:29:38;;;;;;;5.10;1.75;;;5.00;99.90;;;;;;484860;244;27393;-72
2021/03/12 07:31:39;;;;;;;8.23;2.08;;;5.00;99.90;;;;;;484857;244;27389;-72
2021/03/12 07:33:41;;;;;;;5.50;2.17;;;5.10;99.90;;;;;;484884;244;27386;-71
2021/03/12 07:35:42;;;;;;;7.70;2.70;;;5.10;99.90;;;;;;484851;244;27523;-71
2021/03/12 07:37:43;;;;;;;10.82;3.22;;;5.00;99.90;;;;;;484855;244;27401;-72
2021/03/12 07:39:45;;;;;;;6.10;2.45;;;5.10;99.90;;;;;;484856;244;27833;-71
2021/03/12 07:41:46;;;;;;;7.18;2.55;;;5.00;99.90;;;;;;484865;244;27843;-72
2021/03/12 07:43:47;;;;;;;7.62;2.72;;;5.00;99.90;;;;;;484818;244;27382;-72
2021/03/12 07:45:48;;;;;;;12.63;2.70;;;5.00;99.90;;;;;;484831;244;27392;-72
2021/03/12 07:47:49;;;;;;;8.75;2.62;;;5.00;99.90;;;;;;484834;244;27393;-72
2021/03/12 07:49:51;;;;;;;3.33;2.05;;;5.10;99.90;;;;;;484859;244;27456;-71
2021/03/12 07:51:52;;;;;;;8.98;2.50;;;5.30;99.90;;;;;;484830;244;27389;-71
2021/03/12 07:53:53;;;;;;;9.52;2.55;;;5.50;99.90;;;;;;484847;244;27397;-72
2021/03/12 07:55:54;;;;;;;9.35;2.62;;;5.60;99.90;;;;;;484844;244;27845;-71
2021/03/12 07:57:56;;;;;;;8.10;2.60;;;5.60;99.90;;;;;;484850;244;27503;-72
2021/03/12 07:59:57;;;;;;;6.72;2.60;;;5.70;99.90;;;;;;484847;244;27377;-71
2021/03/12 08:01:58;;;;;;;4.62;2.22;;;5.80;99.90;;;;;;484836;244;27401;-72
2021/03/12 08:04:00;;;;;;;6.18;2.08;;;5.90;99.90;;;;;;484844;244;27457;-71
2021/03/12 08:06:01;;;;;;;6.40;2.25;;;5.90;99.90;;;;;;484821;244;27394;-72
2021/03/12 08:08:02;;;;;;;8.30;3.00;;;6.10;99.90;;;;;;484863;244;27409;-73
2021/03/12 08:10:03;;;;;;;8.10;2.40;;;6.10;99.90;;;;;;484855;244;29281;-72
2021/03/12 08:12:05;;;;;;;4.82;1.98;;;6.20;99.90;;;;;;484839;244;29316;-73
2021/03/12 08:14:06;;;;;;;6.00;2.37;;;6.20;99.90;;;;;;484840;244;27470;-72
2021/03/12 08:16:07;;;;;;;6.50;2.53;;;6.10;99.90;;;;;;484847;244;27373;-71
2021/03/12 08:18:08;;;;;;;12.57;2.83;;;6.10;99.90;;;;;;484863;244;27375;-73
2021/03/12 08:20:10;;;;;;;8.67;2.57;;;6.00;99.90;;;;;;484881;244;27469;-72
2021/03/12 08:22:11;;;;;;;10.40;3.10;;;6.00;99.90;;;;;;484838;244;28548;-72
2021/03/12 08:24:12;;;;;;;8.00;2.13;;;6.20;99.90;;;;;;484835;244;28733;-71
2021/03/12 08:26:13;;;;;;;6.67;2.23;;;6.20;99.90;;;;;;484853;244;28891;-72
2021/03/12 08:28:15;;;;;;;7.95;2.20;;;6.20;99.90;;;;;;484840;244;29219;-71
2021/03/12 08:30:16;;;;;;;6.45;2.33;;;6.10;99.90;;;;;;484834;244;27837;-71
2021/03/12 08:32:17;;;;;;;9.23;2.67;;;6.00;99.90;;;;;;484850;244;27377;-72
2021/03/12 08:34:18;;;;;;;6.40;2.23;;;6.10;99.90;;;;;;484851;244;28303;-71
2021/03/12 08:36:20;;;;;;;11.27;2.67;;;6.10;99.90;;;;;;484846;244;27877;-71
2021/03/12 08:38:21;;;;;;;7.47;2.90;;;6.20;99.90;;;;;;484857;244;27373;-71
2021/03/12 08:40:22;;;;;;;7.33;2.80;;;6.30;99.90;;;;;;484856;244;28767;-72
2021/03/12 08:42:23;;;;;;;9.50;2.40;;;6.50;99.90;;;;;;484905;244;27979;-73
2021/03/12 08:44:26;;;;;;;11.20;2.60;;;6.50;99.90;;;;;;484831;244;28637;-71
2021/03/12 08:46:26;;;;;;;8.15;3.05;;;6.50;99.90;;;;;;484851;244;27858;-71
2021/03/12 08:48:27;;;;;;;7.43;2.60;;;6.60;99.90;;;;;;484893;244;27841;-71
2021/03/12 08:50:28;;;;;;;8.60;2.97;;;6.50;99.90;;;;;;484905;244;28425;-71
2021/03/12 08:52:30;;;;;;;6.30;2.73;;;6.50;99.90;;;;;;484913;244;28536;-73
2021/03/12 08:54:31;;;;;;;10.20;2.30;;;6.60;99.90;;;;;;484891;244;27511;-71
2021/03/12 08:56:32;;;;;;;5.60;2.07;;;6.50;99.90;;;;;;484884;244;28396;-72
2021/03/12 08:58:33;;;;;;;9.20;2.60;;;6.50;99.90;;;;;;484869;244;27840;-71
2021/03/12 09:00:35;;;;;;;12.03;2.77;;;6.60;99.90;;;;;;484835;244;27729;-71
2021/03/12 09:02:36;;;;;;;8.10;2.03;;;6.50;99.90;;;;;;484877;244;27735;-73
2021/03/12 09:04:37;;;;;;;9.27;2.43;;;6.50;99.90;;;;;;484866;244;27823;-71
2021/03/12 09:06:39;;;;;;;7.30;2.80;;;6.40;99.90;;;;;;484884;244;27870;-72
2021/03/12 09:08:40;;;;;;;10.37;2.87;;;6.50;99.90;;;;;;484858;245;28066;-71
2021/03/12 09:10:41;;;;;;;11.93;2.67;;;6.60;99.90;;;;;;484869;244;28194;-71
2021/03/12 09:12:42;;;;;;;8.00;2.57;;;6.50;99.90;;;;;;484872;244;28563;-72
2021/03/12 09:14:43;;;;;;;8.03;2.40;;;6.40;99.90;;;;;;484898;244;27922;-72
2021/03/12 09:16:45;;;;;;;6.15;2.47;;;6.40;99.90;;;;;;484879;244;28071;-71
2021/03/12 09:18:46;;;;;;;12.75;2.90;;;6.40;99.90;;;;;;484854;244;27911;-72
2021/03/12 09:20:47;;;;;;;9.00;3.58;;;6.30;99.90;;;;;;484868;244;27444;-71
2021/03/12 09:22:48;;;;;;;13.60;3.42;;;6.30;99.90;;;;;;484871;244;27464;-72
2021/03/12 09:24:50;;;;;;;6.30;2.27;;;6.30;99.90;;;;;;484866;244;27468;-71
2021/03/12 09:26:51;;;;;;;9.35;2.70;;;6.30;99.90;;;;;;484871;244;27941;-72
2021/03/12 09:28:52;;;;;;;8.50;2.97;;;6.40;99.90;;;;;;484863;244;27389;-72
2021/03/12 09:30:53;;;;;;;13.97;3.63;;;6.50;99.90;;;;;;484868;244;27858;-72
2021/03/12 09:32:55;;;;;;;9.13;2.40;;;6.50;99.90;;;;;;484895;244;29259;-72
2021/03/12 09:34:56;;;;;;;11.65;2.60;;;6.60;99.90;;;;;;484899;244;27923;-71
2021/03/12 09:36:58;;;;;;;7.18;2.62;;;6.60;99.90;;;;;;484865;244;27373;-72
2021/03/12 09:38:58;;;;;;;11.23;2.67;;;6.70;99.90;;;;;;484825;244;27401;-72
2021/03/12 09:41:00;;;;;;;12.02;7.60;;;6.80;99.90;;;;;;484848;244;27995;-71
2021/03/12 09:43:01;;;;;;;7.90;2.90;;;6.90;99.90;;;;;;484870;244;27456;-71
2021/03/12 09:45:02;;;;;;;19.40;3.60;;;6.80;99.90;;;;;;484868;244;27400;-72
2021/03/12 09:47:03;;;;;;;9.50;2.83;;;6.90;99.90;;;;;;484864;244;28473;-73
2021/03/12 09:49:05;;;;;;;11.37;2.83;;;6.80;99.90;;;;;;484861;244;28272;-71
2021/03/12 09:51:06;;;;;;;9.90;2.60;;;6.80;99.90;;;;;;484867;244;27978;-72
2021/03/12 09:53:07;;;;;;;7.13;2.60;;;7.00;99.90;;;;;;484885;244;28075;-71
2021/03/12 09:55:08;;;;;;;10.00;3.00;;;7.00;99.90;;;;;;484883;244;27864;-71
2021/03/12 09:57:10;;;;;;;9.27;2.43;;;7.20;99.90;;;;;;484856;244;28087;-73
2021/03/12 09:59:11;;;;;;;10.77;3.03;;;7.10;99.90;;;;;;484854;244;27595;-71
2021/03/12 10:01:12;;;;;;;13.17;2.80;;;7.20;99.90;;;;;;484880;244;27978;-73
2021/03/12 10:03:13;;;;;;;10.07;2.77;;;7.10;99.90;;;;;;484870;244;27859;-71
2021/03/12 10:05:15;;;;;;;9.77;2.90;;;7.10;99.90;;;;;;484855;244;27369;-71
2021/03/12 10:07:16;;;;;;;7.70;2.77;;;7.10;99.90;;;;;;484857;244;28069;-73
2021/03/12 10:09:17;;;;;;;7.40;2.77;;;7.10;99.90;;;;;;484872;244;27676;-71
2021/03/12 10:11:18;;;;;;;8.30;3.03;;;7.30;99.90;;;;;;484878;244;27863;-72
2021/03/12 10:13:20;;;;;;;13.03;2.90;;;7.40;99.90;;;;;;484862;244;27742;-71
2021/03/12 10:15:21;;;;;;;15.17;3.10;;;7.20;99.90;;;;;;484872;244;28278;-71
2021/03/12 10:17:22;;;;;;;13.70;2.70;;;7.30;99.90;;;;;;484858;244;28357;-72
2021/03/12 10:19:23;;;;;;;10.93;2.97;;;7.40;99.90;;;;;;484869;244;28300;-72
2021/03/12 10:21:25;;;;;;;6.93;2.60;;;7.30;99.90;;;;;;484889;244;27854;-72
2021/03/12 10:23:26;;;;;;;10.77;2.50;;;7.20;99.90;;;;;;484882;244;27810;-71
2021/03/12 10:25:27;;;;;;;12.50;3.10;;;7.40;99.90;;;;;;484872;244;27749;-71
2021/03/12 10:27:28;;;;;;;16.43;3.10;;;7.50;99.90;;;;;;484887;244;27629;-72
2021/03/12 10:29:30;;;;;;;13.70;3.10;;;7.50;99.90;;;;;;484867;244;27963;-71
2021/03/12 10:31:31;;;;;;;6.40;2.43;;;7.50;99.90;;;;;;484876;244;27858;-72
2021/03/12 10:33:32;;;;;;;7.60;2.43;;;7.40;99.90;;;;;;484865;244;27942;-71
2021/03/12 10:35:33;;;;;;;9.10;2.27;;;7.40;99.90;;;;;;484865;244;27871;-72
2021/03/12 10:37:35;;;;;;;9.73;2.80;;;7.40;99.90;;;;;;484853;244;27955;-73